Time;durP1;ratioP1;P1;durP2;ratioP2;P2;SDS_P1;SDS_P2;PMS_P1;PMS_P2;Temp;Humidity;BMP_temperature;BMP_pressure;BME280_temperature;BME280_humidity;BME280_pressure;Samples;Min_cycle;Max_cycle;Signal;HPM_P1;HPM_P2
2021/07/13 00:02:22;;;;;;;2.70;1.73;;;21.70;99.90;;;;;;4956620;29;20643;-64
2021/07/13 00:04:49;;;;;;;1.60;1.33;;;21.60;99.90;;;;;;4956815;28;20667;-64
2021/07/13 00:07:15;;;;;;;3.63;1.67;;;21.60;99.90;;;;;;4956709;28;20201;-64
2021/07/13 00:09:41;;;;;;;3.10;1.60;;;21.50;99.90;;;;;;4957056;29;20444;-64
2021/07/13 00:12:09;;;;;;;2.40;1.60;;;21.40;99.90;;;;;;4956866;29;20430;-64
2021/07/13 00:14:35;;;;;;;1.40;1.30;;;21.60;99.90;;;;;;4956533;29;20174;-64
2021/07/13 00:17:02;;;;;;;2.63;1.40;;;21.50;99.90;;;;;;4955807;28;20532;-64
2021/07/13 00:19:28;;;;;;;2.07;1.20;;;21.60;99.90;;;;;;4957452;29;20410;-65
2021/07/13 00:21:53;;;;;;;1.30;1.20;;;21.60;99.90;;;;;;4957157;29;20717;-64
2021/07/13 00:24:19;;;;;;;1.90;1.20;;;21.50;99.90;;;;;;4956529;29;20190;-65
2021/07/13 00:26:45;;;;;;;1.47;1.37;;;21.50;99.90;;;;;;4956511;28;20257;-64
2021/07/13 00:29:10;;;;;;;8.43;1.67;;;21.50;99.90;;;;;;4956561;29;20662;-64
2021/07/13 00:31:36;;;;;;;2.90;1.40;;;21.70;99.90;;;;;;4956270;29;20204;-65
2021/07/13 00:34:02;;;;;;;1.67;1.30;;;21.80;99.90;;;;;;4959778;29;20209;-65
2021/07/13 00:36:27;;;;;;;2.57;1.50;;;21.70;99.90;;;;;;4955622;28;20189;-64
2021/07/13 00:38:53;;;;;;;3.80;1.23;;;21.50;99.90;;;;;;4956279;29;20591;-64
2021/07/13 00:41:19;;;;;;;4.67;2.10;;;21.60;99.90;;;;;;4956207;29;20170;-64
2021/07/13 00:43:44;;;;;;;4.30;1.80;;;21.70;99.90;;;;;;4955174;29;20266;-64
2021/07/13 00:46:11;;;;;;;2.13;1.40;;;21.90;99.90;;;;;;4955869;28;20225;-64
2021/07/13 00:48:37;;;;;;;2.33;1.30;;;22.00;99.90;;;;;;4956096;28;20181;-64
2021/07/13 00:51:03;;;;;;;2.63;1.97;;;22.00;99.90;;;;;;4955803;29;20413;-64
2021/07/13 00:53:29;;;;;;;5.03;2.13;;;22.10;99.90;;;;;;4956318;29;20488;-64
2021/07/13 00:55:57;;;;;;;1.73;1.63;;;21.80;99.90;;;;;;4956164;28;20494;-65
2021/07/13 00:58:24;;;;;;;2.40;1.80;;;21.70;99.90;;;;;;4956086;29;20786;-65
2021/07/13 01:00:50;;;;;;;2.97;2.00;;;21.30;99.90;;;;;;4953409;29;20958;-65
2021/07/13 01:03:15;;;;;;;2.97;2.10;;;21.20;99.90;;;;;;4955172;29;20472;-65
2021/07/13 01:05:45;;;;;;;3.73;1.90;;;21.10;99.90;;;;;;4955396;29;20284;-65
2021/07/13 01:08:41;;;;;;;5.63;2.33;;;21.10;99.90;;;;;;4955562;28;20300;-64
2021/07/13 01:11:27;;;;;;;3.87;2.40;;;21.10;99.90;;;;;;4956020;28;20432;-65
2021/07/13 01:14:06;;;;;;;2.47;1.90;;;21.10;99.90;;;;;;4955374;29;20433;-65
2021/07/13 01:16:47;;;;;;;3.10;1.83;;;20.90;99.90;;;;;;4955572;28;20437;-65
2021/07/13 01:19:33;;;;;;;2.10;1.63;;;20.80;99.90;;;;;;4954778;29;20436;-65
2021/07/13 01:22:04;;;;;;;2.90;1.70;;;21.00;99.90;;;;;;4955803;29;20401;-65
2021/07/13 01:24:53;;;;;;;4.77;2.53;;;21.10;99.90;;;;;;4955885;29;20454;-65
2021/07/13 01:28:00;;;;;;;2.63;1.70;;;21.20;99.90;;;;;;4955722;28;20429;-65
2021/07/13 01:30:29;;;;;;;1.90;1.60;;;21.20;99.90;;;;;;4947668;29;20413;-65
2021/07/13 01:33:12;;;;;;;2.87;1.60;;;20.90;99.90;;;;;;4955096;29;20442;-65
2021/07/13 01:35:45;;;;;;;2.70;1.50;;;20.70;99.90;;;;;;4955691;29;20437;-64
2021/07/13 01:38:14;;;;;;;6.20;2.00;;;20.70;99.90;;;;;;4955275;28;20790;-64
2021/07/13 01:40:42;;;;;;;2.27;1.80;;;21.00;99.90;;;;;;4955616;29;20468;-64
2021/07/13 01:43:12;;;;;;;3.37;1.80;;;20.90;99.90;;;;;;4955202;29;20496;-64
2021/07/13 01:45:40;;;;;;;2.07;1.60;;;20.90;99.90;;;;;;4955526;29;20464;-63
2021/07/13 01:48:09;;;;;;;4.07;1.63;;;20.60;99.90;;;;;;4954353;28;20425;-64
2021/07/13 01:50:35;;;;;;;1.90;1.70;;;20.70;99.90;;;;;;4955496;29;20508;-64
2021/07/13 01:53:03;;;;;;;2.50;1.40;;;20.70;99.90;;;;;;4955249;28;20504;-64
2021/07/13 01:55:32;;;;;;;3.40;2.03;;;20.90;99.90;;;;;;4955127;29;20414;-65
2021/07/13 01:58:00;;;;;;;4.00;1.70;;;21.00;99.90;;;;;;4955075;28;20505;-65
2021/07/13 02:00:26;;;;;;;5.47;1.90;;;21.00;99.90;;;;;;4955468;28;20413;-63
2021/07/13 02:02:53;;;;;;;6.17;1.83;;;21.00;99.90;;;;;;4954790;28;20488;-63
2021/07/13 02:05:20;;;;;;;1.80;1.47;;;20.90;99.90;;;;;;4955154;28;20194;-63
2021/07/13 02:07:49;;;;;;;2.13;1.40;;;20.90;99.90;;;;;;4953723;28;20963;-64
2021/07/13 02:10:17;;;;;;;3.30;1.97;;;20.70;99.90;;;;;;4955243;28;20414;-64
2021/07/13 02:12:43;;;;;;;3.77;1.60;;;20.50;99.90;;;;;;4954312;28;21057;-64
2021/07/13 02:15:09;;;;;;;5.33;2.07;;;20.40;99.90;;;;;;4955250;29;20500;-64
2021/07/13 02:17:35;;;;;;;4.57;1.67;;;20.50;99.90;;;;;;4954723;28;20190;-65
2021/07/13 02:20:06;;;;;;;3.90;1.50;;;20.40;99.90;;;;;;4955301;29;20417;-65
2021/07/13 02:22:32;;;;;;;2.30;1.40;;;20.40;99.90;;;;;;4955125;29;20309;-65
2021/07/13 02:24:57;;;;;;;2.50;1.43;;;20.40;99.90;;;;;;4954808;29;20543;-65
2021/07/13 02:27:30;;;;;;;2.47;1.50;;;20.40;99.90;;;;;;4954778;28;20658;-65
2021/07/13 02:29:58;;;;;;;4.87;1.40;;;20.20;99.90;;;;;;4955282;29;20218;-65
2021/07/13 02:32:48;;;;;;;4.60;2.13;;;20.30;99.90;;;;;;4954553;29;20418;-65
2021/07/13 02:35:17;;;;;;;4.50;1.87;;;20.40;99.90;;;;;;4955142;29;20398;-64
2021/07/13 02:37:47;;;;;;;3.43;1.90;;;20.50;99.90;;;;;;4954938;28;20441;-66
2021/07/13 02:40:14;;;;;;;3.07;1.70;;;20.60;99.90;;;;;;4955056;29;20465;-65
2021/07/13 02:42:45;;;;;;;3.00;1.70;;;20.60;99.90;;;;;;4954476;29;20429;-65
2021/07/13 02:45:12;;;;;;;2.13;1.67;;;20.60;99.90;;;;;;4954994;28;20489;-65
2021/07/13 02:47:42;;;;;;;3.70;1.80;;;20.40;99.90;;;;;;4954494;28;20429;-65
2021/07/13 02:50:08;;;;;;;2.80;2.03;;;20.50;99.90;;;;;;4954714;29;20814;-65
2021/07/13 02:52:34;;;;;;;4.63;2.23;;;20.60;99.90;;;;;;4955274;29;20405;-65
2021/07/13 02:55:08;;;;;;;2.10;1.90;;;20.50;99.90;;;;;;4955055;29;20933;-64
2021/07/13 02:57:36;;;;;;;3.77;1.87;;;20.50;99.90;;;;;;4954572;28;20186;-63
2021/07/13 03:00:05;;;;;;;5.37;2.17;;;20.50;99.90;;;;;;4956058;28;20779;-64
2021/07/13 03:02:30;;;;;;;4.40;2.10;;;20.60;99.90;;;;;;4957893;28;20410;-64
2021/07/13 03:04:57;;;;;;;4.60;2.10;;;20.70;99.90;;;;;;4957988;28;20464;-64
2021/07/13 03:07:23;;;;;;;2.10;1.70;;;20.70;99.90;;;;;;4957934;28;20321;-64
2021/07/13 03:09:49;;;;;;;2.10;1.90;;;20.70;99.90;;;;;;4958453;28;20402;-64
2021/07/13 03:12:15;;;;;;;2.70;1.83;;;20.80;99.90;;;;;;4957636;28;20170;-64
2021/07/13 03:14:43;;;;;;;3.10;2.27;;;20.90;99.90;;;;;;4957616;28;20425;-64
2021/07/13 03:17:11;;;;;;;2.40;2.20;;;20.90;99.90;;;;;;4957678;28;20429;-65
2021/07/13 03:19:37;;;;;;;2.47;2.03;;;20.90;99.90;;;;;;4958005;29;20497;-65
2021/07/13 03:22:04;;;;;;;3.37;2.50;;;20.80;99.90;;;;;;4957713;29;20417;-65
2021/07/13 03:24:31;;;;;;;2.57;2.37;;;20.90;99.90;;;;;;4957651;29;20441;-65
2021/07/13 03:26:59;;;;;;;2.03;1.70;;;21.00;99.90;;;;;;4957819;28;20421;-65
2021/07/13 03:29:25;;;;;;;1.67;1.57;;;21.10;99.90;;;;;;4957652;29;20412;-65
2021/07/13 03:31:51;;;;;;;3.10;2.10;;;21.00;99.90;;;;;;4955967;29;20814;-65
2021/07/13 03:34:18;;;;;;;2.97;2.27;;;21.00;99.90;;;;;;4957491;29;20470;-65
2021/07/13 03:36:46;;;;;;;2.87;2.10;;;21.00;99.90;;;;;;4957435;28;20465;-65
2021/07/13 03:39:18;;;;;;;4.10;2.10;;;21.00;99.90;;;;;;4956651;29;20489;-65
2021/07/13 03:41:46;;;;;;;3.07;2.40;;;21.00;99.90;;;;;;4957415;29;20400;-65
2021/07/13 03:44:14;;;;;;;3.70;2.83;;;21.00;99.90;;;;;;4957267;29;20541;-65
2021/07/13 03:46:39;;;;;;;5.50;2.47;;;21.00;99.90;;;;;;4957196;28;20915;-65
2021/07/13 03:49:07;;;;;;;2.57;2.20;;;21.10;99.90;;;;;;4957369;29;20416;-65
2021/07/13 03:51:39;;;;;;;2.77;1.97;;;21.10;99.90;;;;;;4957824;29;20174;-65
2021/07/13 03:54:06;;;;;;;4.43;2.87;;;21.10;99.90;;;;;;4953412;28;20417;-65
2021/07/13 03:56:32;;;;;;;3.47;1.83;;;21.00;99.90;;;;;;4955570;28;20467;-65
2021/07/13 03:58:59;;;;;;;2.57;2.37;;;21.00;99.90;;;;;;4957115;29;20413;-65
2021/07/13 04:01:25;;;;;;;2.83;2.50;;;21.00;99.90;;;;;;4957256;28;20402;-65
2021/07/13 04:03:51;;;;;;;2.50;2.30;;;21.00;99.90;;;;;;4956814;28;20405;-65
2021/07/13 04:08:54;;;;;;;4.57;3.30;;;21.00;99.90;;;;;;4993791;28;20286;-60
2021/07/13 04:11:20;;;;;;;5.43;3.83;;;21.00;99.90;;;;;;4994787;28;20404;-60
2021/07/13 04:13:45;;;;;;;4.23;3.73;;;20.90;99.90;;;;;;4985929;28;20789;-59
2021/07/13 04:16:11;;;;;;;3.63;2.80;;;20.80;99.90;;;;;;4976106;28;20176;-61
2021/07/13 04:18:37;;;;;;;4.70;4.30;;;20.80;99.90;;;;;;4957432;28;20186;-61
2021/07/13 04:21:03;;;;;;;4.90;4.40;;;20.70;99.90;;;;;;4956650;29;20274;-61
2021/07/13 04:23:29;;;;;;;5.10;4.60;;;20.50;99.90;;;;;;4957116;29;20416;-61
2021/07/13 04:25:54;;;;;;;5.80;5.30;;;20.50;99.90;;;;;;4956741;29;20445;-61
2021/07/13 04:28:20;;;;;;;7.00;5.80;;;20.40;99.90;;;;;;4956036;28;20182;-61
2021/07/13 04:30:46;;;;;;;5.80;4.77;;;20.40;99.90;;;;;;4956462;29;20628;-61
2021/07/13 04:33:12;;;;;;;4.77;3.50;;;20.60;99.90;;;;;;4956395;29;20452;-61
2021/07/13 04:35:39;;;;;;;4.90;4.40;;;20.60;99.90;;;;;;4955996;28;20186;-61
2021/07/13 04:38:05;;;;;;;6.10;5.60;;;20.70;99.90;;;;;;4956822;28;20190;-61
2021/07/13 04:40:31;;;;;;;5.70;5.20;;;20.60;99.90;;;;;;4956433;29;20413;-61
2021/07/13 04:42:56;;;;;;;6.27;4.87;;;20.70;99.90;;;;;;4956222;29;20465;-61
2021/07/13 04:45:22;;;;;;;4.30;4.00;;;20.60;99.90;;;;;;4956068;29;20257;-61
2021/07/13 04:47:48;;;;;;;4.70;4.30;;;20.70;99.90;;;;;;4965631;28;20193;-61
2021/07/13 04:50:13;;;;;;;4.70;3.80;;;20.90;99.90;;;;;;4975931;28;20216;-59
2021/07/13 04:52:39;;;;;;;4.27;3.97;;;21.10;99.90;;;;;;4970338;28;20170;-61
2021/07/13 04:55:05;;;;;;;4.90;4.50;;;21.00;99.90;;;;;;4955909;29;20181;-61
2021/07/13 04:57:31;;;;;;;4.80;4.10;;;21.00;99.90;;;;;;4955721;28;20194;-60
2021/07/13 04:59:57;;;;;;;4.97;4.57;;;21.00;99.90;;;;;;4956000;29;20783;-59
2021/07/13 05:02:22;;;;;;;3.60;3.30;;;20.90;99.90;;;;;;4955955;29;20178;-60
2021/07/13 05:04:48;;;;;;;5.63;3.47;;;20.60;99.90;;;;;;4955444;29;20198;-60
2021/07/13 05:07:14;;;;;;;4.13;3.83;;;20.70;99.90;;;;;;4955524;28;20666;-61
2021/07/13 05:09:39;;;;;;;3.30;3.00;;;20.70;99.90;;;;;;4955969;29;20261;-60
2021/07/13 05:12:06;;;;;;;3.00;2.80;;;20.60;99.90;;;;;;4955227;29;20205;-60
2021/07/13 05:14:32;;;;;;;4.17;3.77;;;20.90;99.90;;;;;;4955448;29;20230;-61
2021/07/13 05:16:57;;;;;;;4.00;2.93;;;21.00;99.90;;;;;;4954863;28;20465;-61
2021/07/13 05:19:23;;;;;;;2.90;2.70;;;21.20;99.90;;;;;;4955059;29;20440;-61
2021/07/13 05:21:55;;;;;;;3.90;2.83;;;21.30;99.90;;;;;;4958027;28;20170;-61
2021/07/13 05:24:22;;;;;;;4.43;2.80;;;21.40;99.90;;;;;;4959935;28;20819;-57
2021/07/13 05:26:48;;;;;;;3.83;2.80;;;21.30;99.90;;;;;;4954851;28;20516;-61
2021/07/13 05:29:14;;;;;;;2.63;2.20;;;21.30;99.90;;;;;;4955178;29;20400;-61
2021/07/13 05:31:41;;;;;;;3.23;2.90;;;21.40;99.90;;;;;;4955301;29;20417;-61
2021/07/13 05:34:07;;;;;;;3.00;2.80;;;21.50;99.90;;;;;;4954427;29;20193;-61
2021/07/13 05:36:32;;;;;;;3.17;2.50;;;21.50;99.90;;;;;;4955032;28;20941;-61
2021/07/13 05:39:00;;;;;;;2.60;2.40;;;21.50;99.90;;;;;;4955511;29;20416;-61
2021/07/13 05:41:26;;;;;;;3.87;2.50;;;21.70;99.90;;;;;;4955024;29;20166;-60
2021/07/13 05:43:53;;;;;;;2.40;2.20;;;21.60;99.90;;;;;;4955404;29;20977;-61
2021/07/13 05:46:19;;;;;;;3.30;3.00;;;21.50;99.90;;;;;;4954901;28;20181;-61
2021/07/13 05:48:45;;;;;;;3.40;3.10;;;21.50;99.90;;;;;;4971580;28;20491;-60
2021/07/13 05:51:10;;;;;;;3.00;2.70;;;21.40;99.90;;;;;;4974455;28;20173;-61
2021/07/13 05:53:36;;;;;;;4.30;4.00;;;21.50;99.90;;;;;;4967497;28;20182;-61
2021/07/13 05:56:02;;;;;;;12.97;9.00;;;21.60;99.90;;;;;;4954990;29;20173;-61
2021/07/13 05:58:28;;;;;;;4.23;3.83;;;21.70;99.90;;;;;;4954787;28;20194;-61
2021/07/13 06:00:54;;;;;;;4.90;3.67;;;21.80;99.90;;;;;;4954749;29;20643;-61
2021/07/13 06:03:19;;;;;;;3.83;3.53;;;21.80;99.90;;;;;;4953778;28;20433;-61
2021/07/13 06:05:45;;;;;;;3.30;3.03;;;21.80;99.90;;;;;;4954134;29;20194;-61
2021/07/13 06:08:11;;;;;;;3.87;3.47;;;21.70;99.90;;;;;;4954151;28;20201;-60
2021/07/13 06:10:37;;;;;;;3.90;3.60;;;21.70;99.90;;;;;;4954971;29;20181;-59
2021/07/13 06:13:03;;;;;;;6.97;3.97;;;21.70;99.90;;;;;;4954741;29;20180;-61
2021/07/13 06:15:29;;;;;;;3.53;3.23;;;21.50;99.90;;;;;;4955067;29;20182;-60
2021/07/13 06:17:54;;;;;;;5.07;3.47;;;21.40;99.90;;;;;;4954679;28;20584;-61
2021/07/13 06:20:20;;;;;;;3.70;3.37;;;21.40;99.90;;;;;;4954598;29;20500;-61
2021/07/13 06:22:46;;;;;;;3.20;2.90;;;21.60;99.90;;;;;;4954508;29;20551;-58
2021/07/13 06:25:12;;;;;;;3.50;3.10;;;21.70;99.90;;;;;;4954965;29;20222;-60
2021/07/13 06:27:37;;;;;;;5.47;3.20;;;21.70;99.90;;;;;;4953266;28;20202;-60
2021/07/13 06:30:05;;;;;;;3.83;2.97;;;21.70;99.90;;;;;;4954485;29;20498;-61
2021/07/13 06:32:31;;;;;;;5.00;3.60;;;21.50;99.90;;;;;;4954926;28;20261;-60
2021/07/13 06:34:57;;;;;;;4.07;3.20;;;21.60;99.90;;;;;;4956388;28;20425;-60
2021/07/13 06:37:23;;;;;;;3.40;3.10;;;21.70;99.90;;;;;;4958940;28;20425;-61
2021/07/13 06:39:49;;;;;;;4.67;3.30;;;21.80;99.90;;;;;;4958777;29;20421;-61
2021/07/13 06:42:14;;;;;;;3.33;3.10;;;21.90;99.90;;;;;;4958353;29;20547;-61
2021/07/13 06:44:40;;;;;;;3.00;2.80;;;21.90;99.90;;;;;;4958035;29;20297;-61
2021/07/13 06:47:06;;;;;;;2.90;2.67;;;21.70;99.90;;;;;;4974985;28;20227;-61
2021/07/13 06:49:31;;;;;;;3.60;2.73;;;21.80;99.90;;;;;;4977587;28;20227;-61
2021/07/13 06:51:57;;;;;;;3.67;3.20;;;22.00;99.90;;;;;;4977340;28;20615;-61
2021/07/13 06:54:23;;;;;;;3.40;3.10;;;22.10;99.90;;;;;;4977756;28;20266;-61
2021/07/13 06:56:48;;;;;;;5.93;2.30;;;22.10;99.90;;;;;;4976850;28;20193;-61
2021/07/13 06:59:14;;;;;;;3.33;2.10;;;21.60;99.90;;;;;;4977520;28;20207;-61
2021/07/13 07:01:40;;;;;;;3.27;2.70;;;21.60;99.90;;;;;;4976840;28;20204;-61
2021/07/13 07:04:05;;;;;;;2.40;2.20;;;21.60;99.90;;;;;;4975783;28;20192;-61
2021/07/13 07:06:31;;;;;;;2.73;2.27;;;21.70;99.90;;;;;;4965609;28;20178;-61
2021/07/13 07:08:57;;;;;;;3.93;2.70;;;21.80;99.90;;;;;;4957890;29;20639;-61
2021/07/13 07:11:22;;;;;;;2.20;2.00;;;21.80;99.90;;;;;;4958137;29;20216;-61
2021/07/13 07:13:48;;;;;;;4.70;2.60;;;21.70;99.90;;;;;;4968493;28;20791;-61
2021/07/13 07:16:14;;;;;;;4.30;2.40;;;21.50;99.90;;;;;;4977313;28;20236;-61
2021/07/13 07:18:40;;;;;;;3.73;2.40;;;21.70;99.90;;;;;;4966733;28;20229;-61
2021/07/13 07:21:05;;;;;;;2.97;1.90;;;21.70;99.90;;;;;;4977105;28;20182;-62
2021/07/13 07:23:31;;;;;;;3.60;2.40;;;21.70;99.90;;;;;;4976289;28;20205;-61
2021/07/13 07:25:57;;;;;;;2.90;2.20;;;21.60;99.90;;;;;;4976890;28;20193;-61
2021/07/13 07:28:22;;;;;;;2.53;2.13;;;21.50;99.90;;;;;;4976496;28;20244;-60
2021/07/13 07:30:48;;;;;;;2.33;1.97;;;21.40;99.90;;;;;;4976773;28;20192;-61
2021/07/13 07:33:14;;;;;;;7.50;3.47;;;21.50;99.90;;;;;;4976103;28;20253;-61
2021/07/13 07:35:40;;;;;;;2.77;2.50;;;21.50;99.90;;;;;;4977122;28;20204;-61
2021/07/13 07:38:05;;;;;;;3.20;2.70;;;21.50;99.90;;;;;;4967593;28;21016;-61
2021/07/13 07:40:31;;;;;;;2.07;1.97;;;21.60;99.90;;;;;;4957643;29;20623;-61
2021/07/13 07:42:58;;;;;;;2.90;2.33;;;21.70;99.90;;;;;;4955931;29;20260;-61
2021/07/13 07:45:24;;;;;;;2.77;2.20;;;21.60;99.90;;;;;;4956535;28;20206;-61
2021/07/13 07:47:50;;;;;;;3.80;2.60;;;21.50;99.90;;;;;;4956969;28;20512;-61
2021/07/13 07:50:18;;;;;;;3.37;2.53;;;21.20;99.90;;;;;;4957651;29;20174;-61
2021/07/13 07:52:44;;;;;;;2.87;2.17;;;21.20;99.90;;;;;;4956286;29;20416;-61
2021/07/13 07:55:11;;;;;;;2.30;2.10;;;21.20;99.90;;;;;;4957281;29;20405;-61
2021/07/13 07:57:36;;;;;;;3.43;2.37;;;21.30;99.90;;;;;;4956950;28;20452;-60
2021/07/13 08:00:08;;;;;;;3.07;2.17;;;21.30;99.90;;;;;;4956871;29;20405;-60
2021/07/13 08:02:34;;;;;;;3.60;2.70;;;21.30;99.90;;;;;;4957068;29;20417;-61
2021/07/13 08:05:00;;;;;;;3.10;2.90;;;21.20;99.90;;;;;;4956857;29;20995;-61
2021/07/13 08:07:27;;;;;;;4.73;3.23;;;21.10;99.90;;;;;;4959981;28;20209;-60
2021/07/13 08:09:52;;;;;;;4.20;2.97;;;21.30;99.90;;;;;;4956489;29;20228;-60
2021/07/13 08:12:18;;;;;;;4.50;2.80;;;21.30;99.90;;;;;;4956930;29;20405;-61
2021/07/13 08:14:43;;;;;;;6.40;2.97;;;21.30;99.90;;;;;;4956057;28;20253;-61
2021/07/13 08:17:09;;;;;;;3.90;2.53;;;21.40;99.90;;;;;;4956901;28;20202;-61
2021/07/13 08:19:38;;;;;;;5.67;2.60;;;21.40;99.90;;;;;;4956923;29;20209;-61
2021/07/13 08:22:09;;;;;;;5.80;2.53;;;21.50;99.90;;;;;;4956603;29;20182;-60
2021/07/13 08:24:35;;;;;;;3.03;2.70;;;21.50;99.90;;;;;;4955878;29;20496;-61
2021/07/13 08:27:02;;;;;;;4.93;3.20;;;21.50;99.90;;;;;;4956396;28;20430;-59
2021/07/13 08:29:27;;;;;;;3.00;2.50;;;21.50;99.90;;;;;;4956310;29;20460;-60
2021/07/13 08:31:57;;;;;;;4.47;3.30;;;21.30;99.90;;;;;;4956214;29;20413;-60
2021/07/13 08:34:23;;;;;;;2.43;2.20;;;21.40;99.90;;;;;;4955968;29;20218;-60
2021/07/13 08:36:49;;;;;;;4.60;2.93;;;21.60;99.90;;;;;;4955995;28;20445;-61
2021/07/13 08:39:15;;;;;;;2.60;2.40;;;21.60;99.90;;;;;;4956609;29;20786;-60
2021/07/13 08:41:41;;;;;;;4.63;2.50;;;21.60;99.90;;;;;;4956270;29;20410;-61
2021/07/13 08:44:07;;;;;;;3.87;2.97;;;21.60;99.90;;;;;;4954718;28;20221;-61
2021/07/13 08:46:32;;;;;;;5.10;3.20;;;21.60;99.90;;;;;;4956096;28;20162;-60
2021/07/13 08:49:03;;;;;;;4.00;3.57;;;21.50;99.90;;;;;;4956256;29;20469;-60
2021/07/13 08:51:29;;;;;;;3.83;3.43;;;21.60;99.90;;;;;;4956212;29;20205;-61
2021/07/13 08:53:54;;;;;;;3.80;3.50;;;21.50;99.90;;;;;;4956139;29;20394;-61
2021/07/13 08:56:20;;;;;;;4.27;3.63;;;21.50;99.90;;;;;;4955882;28;20178;-60
2021/07/13 08:58:46;;;;;;;5.80;3.27;;;21.30;99.90;;;;;;4954322;28;20255;-60
2021/07/13 09:01:12;;;;;;;4.27;3.87;;;21.40;99.90;;;;;;4956041;29;20178;-61
2021/07/13 09:03:53;;;;;;;4.50;4.10;;;21.40;99.90;;;;;;4955817;29;20208;-61
2021/07/13 09:06:19;;;;;;;4.93;4.43;;;21.40;99.90;;;;;;4955830;28;20730;-61
2021/07/13 09:08:44;;;;;;;8.40;6.30;;;21.40;99.90;;;;;;4971928;28;20452;-59
2021/07/13 09:11:21;;;;;;;5.70;4.90;;;21.50;99.90;;;;;;4975147;28;20178;-61
2021/07/13 09:13:53;;;;;;;6.63;5.10;;;21.40;99.90;;;;;;4971152;28;20188;-61
2021/07/13 09:16:29;;;;;;;4.77;4.37;;;21.00;99.90;;;;;;4956295;28;20452;-61
2021/07/13 09:18:57;;;;;;;4.37;3.20;;;20.80;99.90;;;;;;4956840;29;20509;-60
2021/07/13 09:21:36;;;;;;;4.70;2.30;;;20.50;99.90;;;;;;4956373;28;20445;-60
2021/07/13 09:24:10;;;;;;;2.80;1.63;;;20.30;99.90;;;;;;4955861;29;20426;-60
2021/07/13 09:26:40;;;;;;;2.73;1.40;;;20.00;99.90;;;;;;4955933;28;20435;-60
2021/07/13 09:29:08;;;;;;;1.50;1.33;;;19.80;99.90;;;;;;4955691;29;20501;-61
2021/07/13 09:31:33;;;;;;;1.60;1.30;;;19.70;99.90;;;;;;4955371;29;20402;-61
2021/07/13 09:33:59;;;;;;;3.00;1.83;;;19.60;99.90;;;;;;4955536;29;20433;-61
2021/07/13 09:36:25;;;;;;;2.40;1.10;;;19.70;99.90;;;;;;4955487;28;20213;-61
2021/07/13 09:38:53;;;;;;;2.60;0.80;;;19.40;99.90;;;;;;4955283;29;20182;-61
2021/07/13 09:41:33;;;;;;;1.73;0.80;;;19.20;99.90;;;;;;4958004;28;20181;-62
2021/07/13 09:44:01;;;;;;;3.63;0.70;;;18.90;99.90;;;;;;4959934;28;20425;-62
2021/07/13 09:46:31;;;;;;;2.80;1.00;;;18.80;99.90;;;;;;4974856;28;20417;-62
2021/07/13 09:49:06;;;;;;;0.80;0.70;;;18.80;99.90;;;;;;4971938;28;20397;-62
2021/07/13 09:51:31;;;;;;;1.60;0.90;;;18.80;99.90;;;;;;4954561;29;20429;-62
2021/07/13 09:53:57;;;;;;;1.27;0.63;;;18.70;99.90;;;;;;4955038;29;20484;-62
2021/07/13 09:56:42;;;;;;;1.67;0.60;;;18.90;99.90;;;;;;4954448;28;20755;-62
2021/07/13 09:59:08;;;;;;;0.70;0.50;;;18.80;99.90;;;;;;4955216;29;20631;-61
2021/07/13 10:01:34;;;;;;;0.70;0.40;;;18.50;99.90;;;;;;4954879;29;20408;-62
2021/07/13 10:04:03;;;;;;;1.03;0.60;;;18.50;99.90;;;;;;4954652;29;20237;-62
2021/07/13 10:06:31;;;;;;;0.90;0.53;;;18.40;99.90;;;;;;4965400;28;20813;-62
2021/07/13 10:08:59;;;;;;;2.50;0.60;;;18.50;99.90;;;;;;4976186;28;20421;-62
2021/07/13 10:11:29;;;;;;;3.00;0.63;;;18.50;99.90;;;;;;4980449;28;20412;-62
2021/07/13 10:13:58;;;;;;;1.37;0.60;;;18.50;99.90;;;;;;4980238;28;20819;-62
2021/07/13 10:16:25;;;;;;;1.10;0.70;;;18.70;99.90;;;;;;4981866;28;20484;-61
2021/07/13 10:18:51;;;;;;;1.33;0.60;;;18.60;99.90;;;;;;4979929;28;20409;-62
2021/07/13 10:21:18;;;;;;;2.40;0.97;;;18.60;99.90;;;;;;4961079;28;20436;-62
2021/07/13 10:23:45;;;;;;;1.20;0.80;;;18.50;99.90;;;;;;4966193;28;20223;-61
2021/07/13 10:26:11;;;;;;;1.00;0.90;;;18.50;99.90;;;;;;4980318;28;20448;-62
2021/07/13 10:28:38;;;;;;;1.63;0.80;;;18.60;99.90;;;;;;4980313;28;20838;-63
2021/07/13 10:31:05;;;;;;;3.37;0.83;;;18.60;99.90;;;;;;4980794;28;20842;-62
2021/07/13 10:33:35;;;;;;;2.90;0.77;;;18.90;99.90;;;;;;4980328;28;20480;-63
2021/07/13 10:36:25;;;;;;;1.73;0.77;;;19.10;99.90;;;;;;4969118;28;20224;-62
2021/07/13 10:39:30;;;;;;;2.23;0.90;;;19.60;99.90;;;;;;4960801;28;20537;-62
2021/07/13 10:41:58;;;;;;;1.10;0.60;;;19.60;99.90;;;;;;4961523;28;20424;-62
2021/07/13 10:44:44;;;;;;;0.80;0.50;;;19.50;99.90;;;;;;4961159;28;20459;-62
2021/07/13 10:47:20;;;;;;;0.70;0.50;;;19.50;99.90;;;;;;4960772;28;20840;-61
2021/07/13 10:49:46;;;;;;;1.00;0.50;;;19.60;99.90;;;;;;4960583;28;20409;-62
2021/07/13 10:52:53;;;;;;;0.90;0.50;;;19.30;99.90;;;;;;4960801;29;20410;-62
2021/07/13 10:55:31;;;;;;;1.77;0.40;;;19.20;99.90;;;;;;4961114;28;20185;-63
2021/07/13 10:58:19;;;;;;;0.77;0.50;;;19.10;99.90;;;;;;4959525;28;20433;-63
2021/07/13 11:00:48;;;;;;;0.70;0.40;;;18.90;99.90;;;;;;4967016;28;20416;-63
2021/07/13 11:03:32;;;;;;;1.67;0.50;;;18.90;99.90;;;;;;4980329;28;20412;-62
2021/07/13 11:06:16;;;;;;;2.60;0.50;;;18.80;99.90;;;;;;4980314;28;20754;-61
2021/07/13 11:08:44;;;;;;;1.47;0.60;;;18.70;99.90;;;;;;4979868;28;20459;-62
2021/07/13 11:11:16;;;;;;;1.00;0.73;;;18.50;99.90;;;;;;4980032;28;20413;-62
2021/07/13 11:13:46;;;;;;;2.10;0.97;;;18.80;99.90;;;;;;4958990;28;20449;-63
2021/07/13 11:16:13;;;;;;;1.00;0.60;;;19.10;99.90;;;;;;4961008;29;20477;-62
2021/07/13 11:18:41;;;;;;;0.80;0.47;;;19.30;99.90;;;;;;4960036;29;20437;-62
2021/07/13 11:21:21;;;;;;;1.43;0.67;;;19.30;99.90;;;;;;4957550;28;20785;-63
2021/07/13 11:23:48;;;;;;;0.83;0.50;;;19.30;99.90;;;;;;4956713;28;20788;-62
2021/07/13 11:26:16;;;;;;;0.83;0.50;;;19.40;99.90;;;;;;4956960;29;20449;-62
2021/07/13 11:28:56;;;;;;;0.93;0.60;;;19.30;99.90;;;;;;4957301;28;20948;-63
2021/07/13 11:31:26;;;;;;;1.33;0.77;;;18.90;99.90;;;;;;4957923;29;20386;-62
2021/07/13 11:33:53;;;;;;;0.90;0.50;;;19.10;99.90;;;;;;4956268;28;20516;-62
2021/07/13 11:36:29;;;;;;;0.70;0.60;;;19.20;99.90;;;;;;4957289;29;20981;-63
2021/07/13 11:38:56;;;;;;;1.00;0.50;;;19.40;99.90;;;;;;4957461;29;20401;-63
2021/07/13 11:41:22;;;;;;;1.10;0.60;;;19.50;99.90;;;;;;4956736;28;20409;-62
2021/07/13 11:43:56;;;;;;;0.73;0.53;;;19.40;99.90;;;;;;4969617;28;20783;-62
2021/07/13 11:46:24;;;;;;;1.27;0.60;;;19.50;99.90;;;;;;4976089;28;20981;-62
2021/07/13 11:49:20;;;;;;;0.90;0.50;;;19.50;99.90;;;;;;4966060;28;20930;-62
2021/07/13 11:51:52;;;;;;;1.10;0.60;;;19.20;99.90;;;;;;4952709;29;20421;-62
2021/07/13 11:54:20;;;;;;;1.20;0.67;;;19.20;99.90;;;;;;4957259;29;20806;-62
2021/07/13 11:56:48;;;;;;;1.37;0.70;;;19.20;99.90;;;;;;4957155;28;20426;-62
2021/07/13 11:59:16;;;;;;;0.83;0.70;;;18.90;99.90;;;;;;4956908;29;20406;-62
2021/07/13 12:01:44;;;;;;;1.40;0.90;;;19.00;99.90;;;;;;4974451;28;20409;-63
2021/07/13 12:04:12;;;;;;;0.70;0.50;;;19.00;99.90;;;;;;4975988;28;20413;-62
2021/07/13 12:06:40;;;;;;;1.07;0.60;;;19.30;99.90;;;;;;4976168;28;20480;-62
2021/07/13 12:09:14;;;;;;;2.63;0.80;;;19.50;99.90;;;;;;4963652;28;20433;-63
2021/07/13 12:11:43;;;;;;;1.10;0.60;;;19.60;99.90;;;;;;4957042;29;20530;-63
2021/07/13 12:14:14;;;;;;;0.80;0.53;;;19.60;99.90;;;;;;4956880;29;20413;-63
2021/07/13 12:16:41;;;;;;;2.00;0.60;;;19.70;99.90;;;;;;4956771;28;20461;-63
2021/07/13 12:19:11;;;;;;;0.90;0.70;;;19.50;99.90;;;;;;4956820;29;20798;-63
2021/07/13 12:21:47;;;;;;;1.53;0.60;;;19.80;99.90;;;;;;4956400;29;20414;-63
2021/07/13 12:24:17;;;;;;;0.87;0.50;;;20.00;99.90;;;;;;4955900;29;20485;-62
2021/07/13 12:26:49;;;;;;;1.13;0.60;;;20.30;99.90;;;;;;4956091;28;20956;-62
2021/07/13 12:29:22;;;;;;;0.73;0.63;;;20.40;99.90;;;;;;4955120;28;20453;-63
2021/07/13 12:31:48;;;;;;;0.80;0.57;;;20.40;99.90;;;;;;4956163;28;20481;-63
2021/07/13 12:34:28;;;;;;;1.00;0.70;;;20.40;99.90;;;;;;4956260;29;20455;-62
2021/07/13 12:37:11;;;;;;;1.07;0.70;;;20.50;99.90;;;;;;4955664;28;20570;-63
2021/07/13 12:40:07;;;;;;;1.00;0.70;;;20.30;99.90;;;;;;4956451;29;20445;-63
2021/07/13 12:42:35;;;;;;;1.43;0.63;;;20.20;99.90;;;;;;4954990;29;20414;-63
2021/07/13 12:45:13;;;;;;;1.27;0.80;;;20.10;99.90;;;;;;4955032;28;20460;-63
2021/07/13 12:47:39;;;;;;;1.00;0.80;;;20.10;99.90;;;;;;4956059;28;20425;-63
2021/07/13 12:50:11;;;;;;;1.07;0.67;;;20.10;99.90;;;;;;4955919;29;20405;-60
2021/07/13 12:52:58;;;;;;;1.83;0.60;;;20.40;99.90;;;;;;4956102;29;20446;-62
2021/07/13 12:55:58;;;;;;;1.10;0.70;;;20.40;99.90;;;;;;4956331;29;20413;-63
2021/07/13 12:58:26;;;;;;;0.80;0.60;;;20.60;99.90;;;;;;4955004;28;20967;-63
2021/07/13 13:00:52;;;;;;;1.50;0.80;;;20.80;99.90;;;;;;4973168;28;20432;-63